Time;durP1;ratioP1;P1;durP2;ratioP2;P2;SDS_P1;SDS_P2;PMS_P1;PMS_P2;Temp;Humidity;BMP_temperature;BMP_pressure;BME280_temperature;BME280_humidity;BME280_pressure;Samples;Min_cycle;Max_cycle;Signal;HPM_P1;HPM_P2
2022/05/03 00:00:00;;;;;;;4.68;2.03;;;9.00;98.50;;;;;;4969112;28;20034;-50
2022/05/03 00:02:35;;;;;;;6.70;2.50;;;8.80;98.50;;;;;;4966411;28;20042;-45
2022/05/03 00:05:03;;;;;;;6.55;2.30;;;8.70;99.60;;;;;;4967622;28;20130;-50
2022/05/03 00:07:53;;;;;;;4.28;2.25;;;8.50;99.90;;;;;;4969063;28;20074;-51
2022/05/03 00:10:24;;;;;;;3.33;2.03;;;8.50;99.90;;;;;;4947617;28;20058;-52
2022/05/03 00:13:00;;;;;;;3.90;2.50;;;8.40;99.90;;;;;;4969309;28;20042;-50
2022/05/03 00:15:26;;;;;;;4.40;2.75;;;8.30;99.90;;;;;;4967168;28;20046;-48
2022/05/03 00:17:53;;;;;;;4.30;2.50;;;8.30;99.90;;;;;;4972793;28;20455;-51
2022/05/03 00:20:21;;;;;;;4.80;3.00;;;8.30;99.90;;;;;;4970765;28;20400;-51
2022/05/03 00:22:46;;;;;;;5.00;2.60;;;8.30;99.90;;;;;;4972179;28;20068;-52
2022/05/03 00:25:12;;;;;;;5.22;2.30;;;8.30;99.90;;;;;;4971444;28;20034;-51
2022/05/03 00:27:39;;;;;;;4.78;2.47;;;8.30;99.90;;;;;;4954795;28;20034;-52
2022/05/03 00:30:06;;;;;;;6.80;2.78;;;8.30;99.90;;;;;;4954501;28;20046;-52
2022/05/03 00:32:32;;;;;;;5.68;2.83;;;8.40;99.90;;;;;;4950725;28;20555;-52
2022/05/03 00:34:59;;;;;;;4.15;2.88;;;8.30;99.90;;;;;;4955098;28;20039;-51
2022/05/03 00:37:25;;;;;;;6.00;2.72;;;8.30;99.90;;;;;;4973139;28;20456;-53
2022/05/03 00:39:50;;;;;;;4.22;2.75;;;8.40;99.90;;;;;;4954876;28;20097;-52
2022/05/03 00:42:20;;;;;;;6.80;3.00;;;8.40;99.90;;;;;;4971926;28;20042;-50
2022/05/03 00:45:18;;;;;;;3.90;2.45;;;8.30;99.90;;;;;;4967102;28;20106;-48
2022/05/03 00:47:56;;;;;;;4.25;2.50;;;8.30;99.90;;;;;;4968165;28;20119;-49
2022/05/03 00:50:34;;;;;;;4.45;2.65;;;8.30;99.90;;;;;;4951017;28;20170;-48
2022/05/03 00:53:11;;;;;;;5.22;2.20;;;8.20;99.90;;;;;;4971130;28;20039;-51
2022/05/03 00:56:08;;;;;;;4.55;1.80;;;8.00;99.90;;;;;;4953995;28;20051;-47
2022/05/03 00:58:52;;;;;;;3.30;2.13;;;7.80;99.90;;;;;;4970922;28;20097;-55
2022/05/03 01:01:23;;;;;;;2.92;1.98;;;7.70;99.90;;;;;;4969911;28;20074;-52
2022/05/03 01:04:14;;;;;;;4.35;2.30;;;7.60;99.90;;;;;;4968281;28;20468;-52
2022/05/03 01:07:18;;;;;;;3.55;2.42;;;7.50;99.90;;;;;;4968264;28;20035;-49
2022/05/03 01:10:10;;;;;;;4.85;2.60;;;7.50;99.90;;;;;;4970808;28;20057;-47
2022/05/03 01:12:42;;;;;;;4.00;2.25;;;7.50;99.90;;;;;;4951021;28;20429;-47
2022/05/03 01:15:10;;;;;;;5.82;2.95;;;7.50;99.90;;;;;;4970286;28;20057;-51
2022/05/03 01:17:48;;;;;;;3.85;2.45;;;7.60;99.90;;;;;;4970265;28;20511;-52
2022/05/03 01:20:30;;;;;;;4.85;2.80;;;7.60;99.90;;;;;;4951546;28;20050;-50
2022/05/03 01:23:40;;;;;;;4.35;2.63;;;7.60;99.90;;;;;;4966627;28;20047;-44
2022/05/03 01:26:37;;;;;;;5.13;2.60;;;7.50;99.90;;;;;;4965363;28;20493;-46
2022/05/03 01:29:25;;;;;;;4.70;2.92;;;7.40;99.90;;;;;;4969798;28;20113;-49
2022/05/03 01:32:20;;;;;;;4.07;2.70;;;7.30;99.90;;;;;;4964318;28;20304;-52
2022/05/03 01:34:46;;;;;;;5.00;3.33;;;7.30;99.90;;;;;;4948755;28;20870;-50
2022/05/03 01:37:24;;;;;;;3.90;2.60;;;7.30;99.90;;;;;;4969758;28;20105;-52
2022/05/03 01:40:12;;;;;;;4.55;2.65;;;7.20;99.90;;;;;;4969470;28;20396;-45
2022/05/03 01:42:50;;;;;;;4.60;2.80;;;7.30;99.90;;;;;;4968098;28;20109;-52
2022/05/03 01:45:28;;;;;;;6.85;3.15;;;7.20;99.90;;;;;;4969700;28;20167;-52
2022/05/03 01:50:18;;;;;;;5.80;3.40;;;7.30;99.90;;;;;;4969023;28;20488;-48
2022/05/03 01:51:46;;;;;;;4.50;2.83;;;7.30;99.90;;;;;;4968261;28;20404;-52
2022/05/03 01:54:59;;;;;;;6.00;3.22;;;7.30;99.90;;;;;;4963546;28;20046;-51
2022/05/03 01:57:39;;;;;;;5.38;2.97;;;7.30;99.90;;;;;;4846850;29;20412;-52
2022/05/03 02:00:10;;;;;;;4.47;3.00;;;7.30;99.90;;;;;;4853277;29;20451;-53
2022/05/03 02:03:25;;;;;;;5.88;2.95;;;7.30;99.90;;;;;;4919017;28;20062;-52
2022/05/03 02:06:04;;;;;;;4.82;3.30;;;7.20;99.90;;;;;;4967672;28;20094;-52
2022/05/03 02:09:01;;;;;;;4.88;2.78;;;7.30;99.90;;;;;;4967516;28;20521;-52
2022/05/03 02:11:51;;;;;;;6.00;2.97;;;7.20;99.90;;;;;;4964997;28;20047;-51
2022/05/03 02:14:44;;;;;;;5.00;3.22;;;7.20;99.90;;;;;;4967868;28;20153;-49
2022/05/03 02:17:25;;;;;;;;;;;7.20;99.90;;;;;;4945978;28;20444;-46
2022/05/03 02:20:04;;;;;;;5.45;3.28;;;7.20;99.90;;;;;;4968395;28;20000;-52
2022/05/03 02:22:35;;;;;;;5.97;3.20;;;7.20;99.90;;;;;;4948948;28;20076;-52
2022/05/03 02:25:15;;;;;;;4.95;3.15;;;7.20;99.90;;;;;;4955714;28;20091;-49
2022/05/03 02:28:06;;;;;;;5.72;3.67;;;7.20;99.90;;;;;;4970282;28;20031;-51
2022/05/03 02:30:33;;;;;;;5.00;3.35;;;7.20;99.90;;;;;;4951009;28;20129;-46
2022/05/03 02:33:09;;;;;;;6.00;3.80;;;7.20;99.90;;;;;;4967154;28;20093;-52
2022/05/03 02:35:35;;;;;;;5.22;3.60;;;7.20;99.90;;;;;;4951401;28;20434;-50
2022/05/03 02:38:06;;;;;;;5.72;3.13;;;7.20;99.90;;;;;;4971107;28;20046;-52
2022/05/03 02:40:36;;;;;;;7.20;3.95;;;7.20;99.90;;;;;;4967788;28;20046;-47
2022/05/03 02:43:02;;;;;;;4.93;3.10;;;7.20;99.90;;;;;;4950840;28;20055;-53
2022/05/03 02:45:33;;;;;;;5.75;3.10;;;7.20;99.90;;;;;;4952007;28;20049;-48
2022/05/03 02:48:18;;;;;;;4.65;3.17;;;7.10;99.90;;;;;;4963983;28;20034;-53
2022/05/03 02:51:14;;;;;;;4.28;2.58;;;7.10;99.90;;;;;;4958837;28;20448;-50
2022/05/03 02:53:50;;;;;;;4.43;2.70;;;7.10;99.90;;;;;;4954275;28;20054;-48
2022/05/03 02:56:32;;;;;;;4.10;2.38;;;7.00;99.90;;;;;;4967558;28;20066;-48
2022/05/03 02:59:06;;;;;;;4.22;2.47;;;7.00;99.90;;;;;;4966193;28;20047;-51
2022/05/03 03:01:54;;;;;;;3.88;2.40;;;7.00;99.90;;;;;;4965831;28;20476;-48
2022/05/03 03:04:44;;;;;;;3.63;2.42;;;6.90;99.90;;;;;;4967202;28;20051;-51
2022/05/03 03:07:18;;;;;;;4.68;2.33;;;6.90;99.90;;;;;;4965975;28;20038;-50
2022/05/03 03:09:56;;;;;;;2.67;1.70;;;6.80;99.90;;;;;;4966409;28;20031;-45
2022/05/03 03:12:26;;;;;;;2.47;1.50;;;6.80;99.90;;;;;;4968024;28;20031;-52
2022/05/03 03:15:03;;;;;;;3.00;1.70;;;6.80;99.90;;;;;;4968928;28;20068;-48
2022/05/03 03:17:33;;;;;;;2.78;1.85;;;6.80;99.90;;;;;;4963574;28;20053;-50
2022/05/03 03:19:59;;;;;;;2.40;1.67;;;6.80;99.90;;;;;;4965949;28;20047;-51
2022/05/03 03:22:30;;;;;;;2.83;1.60;;;6.70;99.90;;;;;;4972200;28;20403;-50
2022/05/03 03:24:57;;;;;;;6.45;2.55;;;6.70;99.90;;;;;;4971124;28;20102;-52
2022/05/03 03:27:26;;;;;;;3.22;2.10;;;6.70;99.90;;;;;;4969385;28;20507;-52
2022/05/03 03:29:55;;;;;;;5.00;2.42;;;6.70;99.90;;;;;;4951027;28;20469;-48
2022/05/03 03:32:25;;;;;;;3.58;2.00;;;6.70;99.90;;;;;;4968414;28;20050;-55
2022/05/03 03:34:54;;;;;;;3.88;1.80;;;6.70;99.90;;;;;;4969453;28;20117;-52
2022/05/03 03:37:23;;;;;;;3.03;1.95;;;6.60;99.90;;;;;;4950311;28;20035;-46
2022/05/03 03:39:49;;;;;;;4.32;2.22;;;6.60;99.90;;;;;;4966707;28;20038;-53
2022/05/03 03:42:14;;;;;;;4.05;2.40;;;6.60;99.90;;;;;;4968022;28;20034;-51
2022/05/03 03:44:40;;;;;;;3.92;2.50;;;6.60;99.90;;;;;;4967526;28;20050;-49
2022/05/03 03:47:06;;;;;;;3.78;2.80;;;6.60;99.90;;;;;;4966177;28;20046;-51
2022/05/03 03:49:33;;;;;;;3.35;2.13;;;6.60;99.90;;;;;;4966724;28;20030;-51
2022/05/03 03:52:00;;;;;;;5.53;2.08;;;6.50;99.90;;;;;;4971289;28;20031;-50
2022/05/03 03:54:26;;;;;;;2.78;1.73;;;6.50;99.90;;;;;;4954867;28;20058;-52
2022/05/03 03:56:54;;;;;;;2.60;1.80;;;6.50;99.90;;;;;;4972415;28;20133;-52
2022/05/03 03:59:20;;;;;;;3.67;1.98;;;6.50;99.90;;;;;;4954547;28;20042;-53
2022/05/03 04:01:48;;;;;;;3.40;1.80;;;6.50;99.90;;;;;;4965173;28;20039;-50
2022/05/03 04:04:20;;;;;;;2.97;1.60;;;6.50;99.90;;;;;;4971109;28;20061;-52
2022/05/03 04:06:45;;;;;;;3.30;2.00;;;6.50;99.90;;;;;;4973486;28;20077;-51
2022/05/03 04:09:11;;;;;;;2.50;1.52;;;6.50;99.90;;;;;;4970009;28;20293;-46
2022/05/03 04:11:46;;;;;;;4.20;2.00;;;6.50;99.90;;;;;;4965626;28;20038;-51
2022/05/03 04:14:13;;;;;;;4.22;2.00;;;6.50;99.90;;;;;;4952820;28;20061;-52
2022/05/03 04:16:39;;;;;;;4.10;2.00;;;6.50;99.90;;;;;;4971933;28;20054;-47
2022/05/03 04:19:05;;;;;;;3.60;2.47;;;6.50;99.90;;;;;;4970325;28;20031;-52
2022/05/03 04:21:31;;;;;;;3.58;2.25;;;6.50;99.90;;;;;;4969973;28;20377;-45
2022/05/03 04:23:57;;;;;;;3.08;1.95;;;6.60;99.90;;;;;;4952713;28;20050;-51
2022/05/03 04:26:22;;;;;;;3.10;1.90;;;6.60;99.90;;;;;;4972461;28;20039;-52
2022/05/03 04:28:48;;;;;;;3.53;2.05;;;6.60;99.90;;;;;;4971464;28;20447;-47
2022/05/03 04:31:13;;;;;;;3.92;2.65;;;6.60;99.90;;;;;;4970483;28;20104;-45
2022/05/03 04:33:39;;;;;;;5.35;2.10;;;6.60;99.90;;;;;;4969881;28;20113;-53
2022/05/03 04:36:05;;;;;;;3.47;2.38;;;6.70;99.90;;;;;;4969668;28;20383;-51
2022/05/03 04:38:31;;;;;;;3.83;2.30;;;6.70;99.90;;;;;;4960535;28;20046;-52
2022/05/03 04:41:01;;;;;;;3.47;2.10;;;6.70;99.90;;;;;;4937221;28;20046;-50
2022/05/03 04:43:27;;;;;;;3.47;2.25;;;6.70;99.90;;;;;;4960164;28;20105;-49
2022/05/03 04:45:53;;;;;;;4.05;2.58;;;6.80;99.90;;;;;;4970421;28;20054;-47
2022/05/03 04:48:19;;;;;;;4.95;3.08;;;6.80;99.90;;;;;;4969232;28;20038;-52
2022/05/03 04:50:46;;;;;;;4.78;2.80;;;6.90;99.90;;;;;;4971951;28;20034;-52
2022/05/03 04:53:12;;;;;;;5.90;3.28;;;7.00;99.90;;;;;;4951404;28;20050;-52
2022/05/03 04:55:41;;;;;;;8.10;3.45;;;7.10;99.90;;;;;;4971873;28;20435;-48
2022/05/03 04:58:07;;;;;;;5.25;2.92;;;7.20;99.90;;;;;;4969682;28;20503;-50
2022/05/03 05:00:33;;;;;;;5.97;3.70;;;7.20;99.90;;;;;;4970618;28;20110;-50
2022/05/03 05:02:59;;;;;;;5.57;3.55;;;7.30;99.90;;;;;;4970445;28;20102;-52
2022/05/03 05:05:25;;;;;;;6.32;3.75;;;7.40;99.90;;;;;;4971154;28;20039;-52
2022/05/03 05:07:50;;;;;;;6.50;4.15;;;7.50;99.90;;;;;;4968854;28;20043;-52
2022/05/03 05:10:26;;;;;;;7.18;4.45;;;7.70;99.90;;;;;;4966803;28;20050;-51
2022/05/03 05:12:54;;;;;;;7.50;4.43;;;7.80;99.90;;;;;;4953007;28;20122;-47
2022/05/03 05:15:23;;;;;;;8.68;4.78;;;7.90;99.90;;;;;;4962901;28;20046;-51
2022/05/03 05:17:49;;;;;;;8.60;5.20;;;8.10;99.90;;;;;;4956555;28;20620;-47
2022/05/03 05:20:15;;;;;;;7.88;4.40;;;8.20;99.90;;;;;;4956617;28;20170;-52
2022/05/03 05:22:42;;;;;;;11.70;4.43;;;8.30;99.90;;;;;;4941873;28;20043;-52
2022/05/03 05:25:09;;;;;;;7.53;4.00;;;8.50;99.90;;;;;;4959318;28;20174;-50
2022/05/03 05:27:34;;;;;;;9.15;3.88;;;8.70;99.90;;;;;;4959982;28;20042;-48
2022/05/03 05:30:00;;;;;;;20.33;4.00;;;8.80;99.90;;;;;;4938593;28;20097;-43
2022/05/03 05:32:26;;;;;;;16.77;4.50;;;8.90;99.90;;;;;;4958539;28;20146;-46
2022/05/03 05:34:51;;;;;;;7.70;2.80;;;9.00;99.90;;;;;;4964636;28;20567;-52
2022/05/03 05:37:17;;;;;;;11.23;2.78;;;9.10;99.90;;;;;;4956763;28;20049;-44
2022/05/03 05:39:44;;;;;;;7.50;2.78;;;9.20;99.90;;;;;;4959773;28;20460;-48
2022/05/03 05:42:11;;;;;;;7.60;3.55;;;9.30;99.90;;;;;;4957387;28;20476;-50
2022/05/03 05:44:37;;;;;;;4.50;3.30;;;9.40;99.90;;;;;;4956359;28;20070;-44
2022/05/03 05:47:05;;;;;;;6.38;3.33;;;9.40;99.90;;;;;;4958273;28;20137;-45
2022/05/03 05:49:31;;;;;;;5.18;3.90;;;9.40;99.90;;;;;;4957325;28;20495;-49
2022/05/03 05:53:31;;;;;;;6.57;3.78;;;9.30;99.90;;;;;;4967394;28;20042;-49
2022/05/03 05:54:43;;;;;;;6.30;4.10;;;9.40;99.90;;;;;;4968668;28;20503;-48
2022/05/03 05:57:08;;;;;;;5.82;3.53;;;9.50;99.90;;;;;;4970992;28;20487;-51
2022/05/03 05:59:34;;;;;;;5.55;3.55;;;9.50;99.90;;;;;;4953143;28;20097;-49
2022/05/03 06:02:00;;;;;;;5.28;3.70;;;9.60;99.90;;;;;;4969696;28;20553;-49
2022/05/03 06:04:28;;;;;;;6.55;4.35;;;9.60;99.90;;;;;;4968033;28;20106;-57
2022/05/03 06:06:54;;;;;;;7.28;3.90;;;9.70;99.90;;;;;;4968790;28;20090;-45
2022/05/03 06:09:20;;;;;;;5.93;4.32;;;9.80;99.90;;;;;;4968922;28;20042;-48
2022/05/03 06:11:46;;;;;;;7.15;4.70;;;9.90;99.90;;;;;;4967117;28;20049;-52
2022/05/03 06:14:12;;;;;;;7.18;5.05;;;9.90;99.90;;;;;;4968363;28;20122;-49
2022/05/03 06:16:51;;;;;;;7.13;4.72;;;9.90;99.90;;;;;;4968500;28;20043;-54
2022/05/03 06:19:16;;;;;;;7.43;4.90;;;10.00;99.90;;;;;;4968465;28;20031;-52
2022/05/03 06:21:43;;;;;;;7.38;5.30;;;10.10;99.90;;;;;;4969060;28;20041;-51
2022/05/03 06:24:08;;;;;;;8.38;5.47;;;10.20;99.90;;;;;;4967658;28;20049;-53
2022/05/03 06:26:34;;;;;;;9.98;6.65;;;10.30;99.90;;;;;;4970969;28;20046;-50
2022/05/03 06:29:05;;;;;;;8.35;5.53;;;10.40;99.90;;;;;;4966708;28;20512;-49
2022/05/03 06:31:31;;;;;;;9.98;6.28;;;10.50;99.90;;;;;;4968936;28;20054;-53
2022/05/03 06:33:56;;;;;;;8.48;6.15;;;10.60;99.90;;;;;;4967413;28;20408;-54
2022/05/03 06:36:22;;;;;;;9.90;6.15;;;10.60;99.90;;;;;;4951456;28;20087;-49
2022/05/03 06:38:48;;;;;;;9.52;6.53;;;10.70;99.90;;;;;;4969304;28;20037;-50
2022/05/03 06:41:16;;;;;;;10.98;6.60;;;10.70;99.90;;;;;;4967673;28;20054;-49
2022/05/03 06:43:42;;;;;;;11.32;7.45;;;10.70;99.90;;;;;;4969297;28;20112;-52
2022/05/03 06:46:07;;;;;;;12.80;7.85;;;10.70;99.90;;;;;;4969536;28;20039;-50
2022/05/03 06:48:33;;;;;;;13.48;8.52;;;10.70;99.90;;;;;;4962668;28;20034;-52
2022/05/03 06:50:59;;;;;;;13.68;8.50;;;10.70;99.90;;;;;;4968606;28;20437;-47
2022/05/03 06:53:25;;;;;;;11.43;7.88;;;10.80;99.90;;;;;;4968981;28;20114;-47
2022/05/03 06:55:50;;;;;;;12.52;8.23;;;10.80;99.90;;;;;;4968013;28;20081;-51
2022/05/03 06:58:16;;;;;;;11.10;6.43;;;10.80;99.90;;;;;;4955049;28;20035;-50
2022/05/03 07:00:42;;;;;;;14.57;9.25;;;10.80;99.90;;;;;;4960752;28;20532;-47
2022/05/03 07:03:07;;;;;;;15.57;9.00;;;10.80;99.90;;;;;;4969758;28;20064;-51
2022/05/03 07:05:33;;;;;;;17.35;10.88;;;10.90;99.90;;;;;;4970893;28;20093;-51
2022/05/03 07:07:59;;;;;;;17.95;10.77;;;10.90;99.90;;;;;;4968047;28;20050;-50
2022/05/03 07:10:25;;;;;;;19.35;10.05;;;11.00;99.90;;;;;;4966527;28;20074;-51
2022/05/03 07:12:51;;;;;;;25.23;14.02;;;11.00;99.90;;;;;;4970053;28;20117;-50
2022/05/03 07:15:18;;;;;;;22.83;12.73;;;11.00;99.90;;;;;;4970686;28;20054;-51
2022/05/03 07:23:15;;;;;;;23.45;12.68;;;11.10;99.90;;;;;;4965425;28;20507;-51
2022/05/03 07:25:41;;;;;;;24.13;13.20;;;11.10;99.90;;;;;;4969356;28;20043;-47
2022/05/03 07:28:07;;;;;;;27.85;14.27;;;11.10;99.90;;;;;;4954878;28;20039;-49
2022/05/03 07:30:35;;;;;;;29.98;14.70;;;11.20;99.90;;;;;;4972222;28;20042;-48
2022/05/03 07:33:00;;;;;;;28.98;15.70;;;11.30;99.90;;;;;;4954866;28;20035;-52
2022/05/03 07:35:26;;;;;;;33.03;16.73;;;11.40;99.90;;;;;;4971076;28;20070;-47
2022/05/03 07:37:52;;;;;;;28.30;15.80;;;11.40;99.90;;;;;;4973572;28;20125;-45
2022/05/03 07:40:18;;;;;;;36.75;16.02;;;11.40;99.90;;;;;;4967135;28;20039;-51
2022/05/03 07:42:43;;;;;;;36.53;15.93;;;11.40;99.90;;;;;;4953794;28;20039;-49
2022/05/03 07:45:09;;;;;;;53.55;21.30;;;11.50;99.90;;;;;;4951791;28;20533;-49
2022/05/03 07:47:36;;;;;;;48.85;20.85;;;11.60;99.90;;;;;;4952261;28;20058;-51
2022/05/03 07:50:03;;;;;;;53.42;22.05;;;11.70;99.90;;;;;;4972048;28;20066;-48
2022/05/03 07:52:29;;;;;;;50.00;20.92;;;11.70;99.90;;;;;;4965260;28;20039;-52
2022/05/03 07:54:55;;;;;;;45.08;18.30;;;11.80;99.90;;;;;;4955385;28;20069;-52
2022/05/03 07:57:21;;;;;;;41.75;19.42;;;11.90;99.90;;;;;;4955585;28;20043;-52
2022/05/03 07:59:47;;;;;;;39.60;18.10;;;11.90;99.90;;;;;;4969658;28;20038;-54
2022/05/03 08:02:12;;;;;;;45.47;19.67;;;12.00;99.90;;;;;;4975995;28;20042;-51
2022/05/03 08:04:39;;;;;;;45.42;19.38;;;12.00;99.90;;;;;;4948236;28;20488;-52
2022/05/03 08:07:05;;;;;;;42.08;20.00;;;12.00;99.90;;;;;;4966383;28;20047;-48
2022/05/03 08:09:32;;;;;;;37.97;16.38;;;12.00;99.90;;;;;;4968899;28;20108;-47
2022/05/03 08:12:00;;;;;;;46.47;20.63;;;12.00;99.90;;;;;;4968667;28;20134;-51
2022/05/03 08:14:27;;;;;;;47.42;20.23;;;11.90;99.90;;;;;;4975002;28;20898;-47
2022/05/03 08:16:53;;;;;;;45.17;19.45;;;11.80;99.90;;;;;;4971904;28;20075;-52
2022/05/03 08:19:19;;;;;;;43.13;18.20;;;11.80;99.90;;;;;;4958308;28;20122;-52
2022/05/03 08:21:44;;;;;;;45.35;19.95;;;11.80;99.90;;;;;;4968328;28;20504;-53
2022/05/03 08:24:10;;;;;;;44.10;18.52;;;11.70;99.90;;;;;;4973158;28;20053;-49
2022/05/03 08:26:36;;;;;;;43.55;17.73;;;11.70;99.90;;;;;;4976566;28;20038;-52
2022/05/03 08:29:01;;;;;;;39.60;17.60;;;11.70;99.90;;;;;;4966208;28;20380;-52
2022/05/03 08:31:27;;;;;;;40.92;17.30;;;11.60;99.90;;;;;;4967618;28;20063;-52
2022/05/03 08:33:53;;;;;;;35.83;17.20;;;11.60;99.90;;;;;;4969268;28;20138;-52
2022/05/03 08:36:18;;;;;;;32.10;16.73;;;11.60;99.90;;;;;;4971117;28;20046;-52
2022/05/03 08:44:12;;;;;;;30.80;14.57;;;11.50;99.90;;;;;;4972766;28;20043;-51
2022/05/03 08:46:42;;;;;;;26.67;15.05;;;11.40;99.90;;;;;;4968959;28;20038;-48
2022/05/03 08:49:13;;;;;;;26.77;13.68;;;11.40;99.90;;;;;;4953198;28;20074;-53
2022/05/03 08:51:42;;;;;;;20.37;11.83;;;11.40;99.90;;;;;;4928919;28;20058;-53
2022/05/03 08:54:09;;;;;;;21.42;10.73;;;11.40;99.90;;;;;;4966755;28;20043;-52
2022/05/03 08:56:35;;;;;;;20.13;11.30;;;11.40;99.90;;;;;;4970811;28;20139;-53
2022/05/03 08:59:01;;;;;;;17.58;9.95;;;11.40;99.90;;;;;;4968021;28;20342;-50
2022/05/03 09:01:26;;;;;;;17.33;9.63;;;11.40;99.90;;;;;;4969759;28;20039;-51
2022/05/03 09:03:52;;;;;;;21.60;10.52;;;11.60;99.90;;;;;;4967075;28;20460;-49
2022/05/03 09:06:18;;;;;;;13.57;8.75;;;11.70;99.90;;;;;;4961816;28;20046;-53
2022/05/03 09:08:51;;;;;;;16.60;9.52;;;11.90;99.90;;;;;;4952125;28;20051;-52
2022/05/03 09:11:18;;;;;;;12.45;8.00;;;12.00;99.90;;;;;;4963382;28;20179;-50
2022/05/03 09:13:45;;;;;;;13.15;7.13;;;12.00;99.90;;;;;;4964024;28;20045;-48
2022/05/03 09:16:12;;;;;;;14.30;7.55;;;12.00;99.90;;;;;;4966181;28;20050;-48
2022/05/03 09:18:37;;;;;;;15.82;7.70;;;12.00;99.90;;;;;;4950719;28;20483;-52
2022/05/03 09:24:03;;;;;;;11.07;6.20;;;12.20;99.90;;;;;;4949551;28;20057;-49
2022/05/03 09:26:30;;;;;;;13.13;7.15;;;12.30;99.90;;;;;;4969375;28;20042;-52
2022/05/03 09:29:05;;;;;;;10.80;5.88;;;12.30;99.90;;;;;;4948640;28;20097;-49
2022/05/03 09:31:42;;;;;;;13.18;6.15;;;12.40;99.90;;;;;;4965005;28;20051;-45
2022/05/03 09:34:20;;;;;;;10.63;5.93;;;12.40;99.90;;;;;;4960537;28;20407;-47
2022/05/03 09:36:49;;;;;;;11.68;6.13;;;12.40;99.90;;;;;;4965688;28;20046;-48
2022/05/03 09:39:22;;;;;;;8.32;5.13;;;12.40;99.90;;;;;;4963363;28;20105;-53
2022/05/03 09:42:20;;;;;;;11.70;5.53;;;12.40;99.90;;;;;;4966558;28;20045;-50
2022/05/03 09:45:00;;;;;;;9.35;4.95;;;12.50;99.90;;;;;;4964087;28;20050;-46
2022/05/03 09:47:49;;;;;;;10.45;5.28;;;12.40;99.90;;;;;;4951286;28;20046;-49
2022/05/03 09:50:29;;;;;;;8.77;4.72;;;12.40;99.90;;;;;;4965273;28;20042;-53
2022/05/03 09:52:56;;;;;;;8.95;4.18;;;12.40;99.90;;;;;;4959260;28;20039;-52
2022/05/03 09:55:33;;;;;;;8.23;4.28;;;12.30;99.90;;;;;;4963204;28;20075;-47
2022/05/03 09:58:05;;;;;;;6.50;3.40;;;12.30;99.90;;;;;;4962748;28;20054;-49
2022/05/03 10:00:35;;;;;;;6.95;3.30;;;12.30;99.90;;;;;;4957903;28;20047;-52
2022/05/03 10:03:03;;;;;;;8.98;3.92;;;12.30;99.90;;;;;;4958548;28;20066;-52
2022/05/03 10:05:30;;;;;;;7.68;3.83;;;12.30;99.90;;;;;;4960531;28;20038;-48
2022/05/03 10:07:56;;;;;;;7.00;3.80;;;12.30;99.90;;;;;;4965374;28;20035;-49
2022/05/03 10:10:26;;;;;;;7.50;3.63;;;12.30;99.90;;;;;;4947168;28;20049;-51
2022/05/03 10:12:53;;;;;;;7.82;3.45;;;12.30;99.90;;;;;;4962796;28;20047;-52
2022/05/03 10:21:29;;;;;;;8.55;3.47;;;12.30;99.90;;;;;;4963459;28;20073;-51
2022/05/03 10:24:11;;;;;;;8.80;3.55;;;12.30;99.90;;;;;;4956705;28;20531;-53
2022/05/03 10:26:56;;;;;;;10.35;3.30;;;12.30;99.90;;;;;;4974878;28;20121;-53
2022/05/03 10:29:25;;;;;;;8.18;4.03;;;12.30;99.90;;;;;;4966647;28;20129;-52
2022/05/03 10:32:03;;;;;;;10.85;3.72;;;12.20;99.90;;;;;;4969739;28;20061;-49
2022/05/03 10:35:03;;;;;;;12.25;3.95;;;12.20;99.90;;;;;;4965576;28;20043;-51
2022/05/03 10:37:29;;;;;;;7.88;2.83;;;12.10;99.90;;;;;;4964256;28;20039;-49
2022/05/03 10:39:57;;;;;;;9.30;3.65;;;12.10;99.90;;;;;;4966690;28;20042;-51
2022/05/03 10:42:28;;;;;;;11.45;3.38;;;12.10;99.90;;;;;;4952962;28;20116;-53
2022/05/03 10:44:53;;;;;;;11.68;3.45;;;12.10;99.90;;;;;;4966016;28;20046;-50
2022/05/03 10:47:21;;;;;;;8.85;3.53;;;12.10;99.90;;;;;;4965260;28;20039;-51
2022/05/03 10:50:15;;;;;;;14.05;4.35;;;12.10;99.90;;;;;;4965168;28;20479;-49
2022/05/03 10:52:46;;;;;;;10.15;3.78;;;12.10;99.90;;;;;;4966528;28;20042;-48
2022/05/03 10:55:13;;;;;;;8.70;3.97;;;12.10;99.90;;;;;;4968039;28;20050;-53
2022/05/03 10:58:14;;;;;;;8.13;3.53;;;12.00;99.90;;;;;;4969188;28;20154;-53
2022/05/03 11:01:07;;;;;;;12.88;3.92;;;11.90;99.90;;;;;;4931596;28;20115;-50
2022/05/03 11:03:35;;;;;;;15.80;4.03;;;11.90;99.90;;;;;;4963190;28;20038;-52
2022/05/03 11:06:19;;;;;;;12.45;4.50;;;11.90;99.90;;;;;;4946135;28;20377;-51
2022/05/03 11:11:47;;;;;;;16.33;4.57;;;11.90;99.90;;;;;;4949110;28;20047;-53
2022/05/03 11:14:16;;;;;;;14.45;3.85;;;12.00;99.90;;;;;;4965799;28;20137;-53
2022/05/03 11:17:09;;;;;;;10.63;4.25;;;12.00;99.90;;;;;;4948294;28;20046;-49
2022/05/03 11:19:37;;;;;;;12.93;3.92;;;12.00;99.90;;;;;;4961346;28;20293;-53
2022/05/03 11:22:14;;;;;;;12.93;3.72;;;12.00;99.90;;;;;;4965768;28;20045;-50
2022/05/03 11:24:50;;;;;;;11.63;4.20;;;12.10;99.90;;;;;;4967879;28;20101;-52
2022/05/03 11:27:17;;;;;;;9.05;3.25;;;12.10;99.90;;;;;;4969412;28;20077;-52
2022/05/03 11:29:54;;;;;;;12.75;3.70;;;12.20;99.90;;;;;;4967019;28;20056;-48
2022/05/03 11:32:46;;;;;;;11.93;3.55;;;12.20;99.90;;;;;;4947654;28;20129;-50
2022/05/03 11:35:20;;;;;;;14.17;4.07;;;12.20;99.90;;;;;;4956943;28;20054;-52
2022/05/03 11:37:53;;;;;;;11.88;3.35;;;12.30;99.90;;;;;;4967911;28;20057;-51
2022/05/03 11:40:22;;;;;;;11.45;4.05;;;12.30;99.90;;;;;;4949831;28;20046;-51
2022/05/03 11:42:49;;;;;;;11.27;3.03;;;12.40;99.90;;;;;;4966787;28;20062;-51
2022/05/03 11:45:16;;;;;;;9.52;3.13;;;12.50;99.90;;;;;;4966255;28;20122;-51
2022/05/03 11:47:45;;;;;;;8.43;3.05;;;12.70;99.90;;;;;;4964301;28;20121;-44
2022/05/03 11:56:24;;;;;;;10.45;3.10;;;13.40;99.80;;;;;;4961383;28;20130;-50
2022/05/03 11:58:50;;;;;;;9.05;3.15;;;13.50;99.70;;;;;;4968900;28;20050;-49
2022/05/03 12:01:16;;;;;;;11.02;3.25;;;13.60;98.80;;;;;;4950270;28;20054;-52
2022/05/03 12:03:55;;;;;;;10.32;2.95;;;13.70;98.10;;;;;;4951556;28;20516;-50
2022/05/03 12:06:21;;;;;;;11.25;3.05;;;13.70;97.10;;;;;;4969674;28;20045;-52
2022/05/03 12:08:48;;;;;;;9.95;3.42;;;13.70;97.20;;;;;;4967928;28;20066;-52
2022/05/03 12:11:21;;;;;;;8.98;3.28;;;13.80;97.10;;;;;;4969310;28;20045;-50
2022/05/03 12:13:47;;;;;;;11.88;3.00;;;13.90;96.50;;;;;;4973428;28;20101;-50
2022/05/03 12:16:16;;;;;;;7.90;2.78;;;14.00;96.10;;;;;;4951528;28;20050;-50
2022/05/03 12:18:45;;;;;;;8.95;2.63;;;14.00;95.70;;;;;;4971405;28;20963;-51
2022/05/03 12:21:26;;;;;;;9.90;2.30;;;14.00;95.40;;;;;;4972190;28;20063;-56
2022/05/03 12:23:58;;;;;;;8.13;2.75;;;14.20;94.80;;;;;;4970797;28;20059;-50
2022/05/03 12:26:37;;;;;;;8.27;2.47;;;14.30;94.60;;;;;;4970162;28;20400;-48
2022/05/03 12:29:04;;;;;;;9.48;3.38;;;14.30;93.70;;;;;;4970800;28;20145;-48
2022/05/03 12:31:36;;;;;;;9.07;3.20;;;14.30;94.00;;;;;;4951226;28;20117;-51
2022/05/03 12:34:13;;;;;;;7.72;2.67;;;14.30;93.70;;;;;;4952847;28;20046;-46
2022/05/03 12:36:41;;;;;;;10.52;2.38;;;14.40;93.90;;;;;;4971266;28;20392;-47
2022/05/03 12:39:10;;;;;;;11.10;2.70;;;14.40;93.90;;;;;;4970623;28;20039;-49
2022/05/03 12:41:37;;;;;;;12.25;2.67;;;14.50;93.30;;;;;;4972533;28;20101;-54
2022/05/03 12:44:14;;;;;;;10.10;3.40;;;14.50;92.80;;;;;;4973373;28;20047;-49
2022/05/03 12:46:41;;;;;;;8.65;2.63;;;14.50;93.00;;;;;;4971580;28;20536;-51
2022/05/03 12:49:13;;;;;;;9.73;2.42;;;14.40;92.10;;;;;;4953960;28;20085;-49
2022/05/03 12:51:41;;;;;;;10.82;2.47;;;14.40;92.10;;;;;;4969752;28;20035;-50
2022/05/03 12:54:07;;;;;;;8.85;2.40;;;14.40;91.70;;;;;;4973044;28;20395;-51
2022/05/03 12:59:21;;;;;;;7.85;2.03;;;14.40;91.40;;;;;;4970666;28;20082;-49
2022/05/03 13:01:50;;;;;;;7.18;1.88;;;14.40;90.70;;;;;;4954045;28;20501;-52
2022/05/03 13:04:16;;;;;;;6.20;1.83;;;14.40;90.60;;;;;;4960629;28;20053;-50
2022/05/03 13:06:43;;;;;;;5.78;2.08;;;14.40;88.80;;;;;;4970628;28;20116;-48
2022/05/03 13:09:10;;;;;;;9.30;1.67;;;14.50;88.20;;;;;;4970086;28;20109;-43
2022/05/03 13:11:38;;;;;;;9.65;2.08;;;14.60;87.60;;;;;;4970623;28;20038;-52
2022/05/03 13:14:08;;;;;;;9.70;2.20;;;14.60;86.70;;;;;;4970088;28;20047;-52
2022/05/03 13:16:34;;;;;;;8.65;2.20;;;14.70;86.20;;;;;;4967227;28;20117;-52
2022/05/03 13:19:00;;;;;;;4.55;1.70;;;14.80;85.10;;;;;;4970708;28;20126;-52
2022/05/03 13:21:26;;;;;;;8.02;1.83;;;14.90;84.90;;;;;;4968186;28;20114;-52
2022/05/03 13:23:53;;;;;;;5.53;1.42;;;15.00;83.50;;;;;;4966955;28;20039;-52
2022/05/03 13:26:18;;;;;;;9.10;1.92;;;15.20;82.60;;;;;;4952083;28;20051;-50
2022/05/03 13:28:44;;;;;;;9.45;1.65;;;15.30;81.60;;;;;;4922100;28;20043;-45
2022/05/03 13:31:12;;;;;;;6.47;1.55;;;15.40;80.10;;;;;;4967918;28;20126;-51
2022/05/03 13:33:37;;;;;;;7.55;1.70;;;15.50;78.90;;;;;;4970287;28;20144;-48
2022/05/03 13:41:32;;;;;;;5.57;1.75;;;15.80;75.00;;;;;;4971110;28;21979;-52
2022/05/03 13:43:58;;;;;;;7.30;1.50;;;15.90;74.20;;;;;;4934784;28;20046;-45
2022/05/03 13:46:29;;;;;;;7.55;2.13;;;15.90;72.70;;;;;;4971261;28;20034;-52